createdAt,value
2018-10-05T00:00:30.514Z,7.37
2018-10-05T00:02:59.662Z,10.13
2018-10-05T00:05:28.800Z,8.90
2018-10-05T00:07:57.814Z,9.63
2018-10-05T00:10:26.898Z,7.43
2018-10-05T00:12:56.142Z,8.33
2018-10-05T00:15:25.222Z,7.33
2018-10-05T00:17:54.337Z,9.67
2018-10-05T00:20:23.517Z,14.37
2018-10-05T00:22:52.736Z,9.00
2018-10-05T00:25:21.809Z,9.30
2018-10-05T00:27:50.950Z,8.57
2018-10-05T00:30:20.103Z,11.40
2018-10-05T00:32:49.228Z,10.83
2018-10-05T00:35:18.311Z,9.73
2018-10-05T00:37:47.351Z,7.17
2018-10-05T00:40:16.385Z,8.80
2018-10-05T00:42:45.424Z,9.40
2018-10-05T00:45:14.572Z,8.30
2018-10-05T00:47:43.600Z,6.00
2018-10-05T00:50:12.902Z,8.20
2018-10-05T00:52:42.010Z,10.80
2018-10-05T00:55:11.135Z,8.87
2018-10-05T00:57:40.226Z,8.50
2018-10-05T01:00:09.426Z,10.30
2018-10-05T01:02:38.482Z,8.70
2018-10-05T01:05:07.575Z,8.70
2018-10-05T01:07:36.658Z,13.07
2018-10-05T01:10:06.098Z,8.53
2018-10-05T01:12:35.327Z,9.57
2018-10-05T01:15:04.545Z,9.73
2018-10-05T01:17:33.719Z,11.90
2018-10-05T01:20:03.324Z,9.30
2018-10-05T01:22:32.487Z,8.53
2018-10-05T01:25:01.596Z,8.57
2018-10-05T01:27:30.801Z,7.30
2018-10-05T01:30:00.061Z,11.20
2018-10-05T01:32:29.218Z,7.87
2018-10-05T01:34:58.387Z,9.03
2018-10-05T01:37:27.473Z,7.63
2018-10-05T01:39:56.597Z,8.83
2018-10-05T01:42:25.711Z,9.27
2018-10-05T01:44:54.873Z,8.93
2018-10-05T01:47:23.966Z,9.60
2018-10-05T01:49:53.883Z,11.60
2018-10-05T01:52:23.011Z,7.30
2018-10-05T01:54:52.166Z,6.80
2018-10-05T01:57:21.260Z,8.43
2018-10-05T01:59:50.382Z,7.63
2018-10-05T02:02:19.487Z,10.93
2018-10-05T02:04:48.559Z,7.93
2018-10-05T02:07:17.695Z,10.40
2018-10-05T02:09:46.823Z,9.87
2018-10-05T02:12:15.898Z,8.40
2018-10-05T02:14:44.954Z,7.50
2018-10-05T02:17:14.105Z,10.33
2018-10-05T02:19:49.386Z,9.80
2018-10-05T02:22:18.490Z,8.20
2018-10-05T02:24:47.615Z,11.43
2018-10-05T02:27:16.634Z,9.27
2018-10-05T02:29:45.692Z,9.40
2018-10-05T02:32:15.275Z,9.73
2018-10-05T02:34:44.419Z,6.97
2018-10-05T02:37:13.802Z,8.57
2018-10-05T02:39:43.313Z,7.80
2018-10-05T02:42:12.451Z,9.80
2018-10-05T02:44:41.591Z,9.87
2018-10-05T02:47:10.738Z,8.87
2018-10-05T02:49:39.901Z,6.90
2018-10-05T02:52:09.175Z,11.67
2018-10-05T02:54:38.322Z,7.60
2018-10-05T02:57:07.417Z,10.63
2018-10-05T02:59:36.511Z,10.50
2018-10-05T03:02:16.609Z,9.73
2018-10-05T03:04:45.578Z,8.50
2018-10-05T03:07:14.738Z,11.07
2018-10-05T03:09:43.830Z,8.63
2018-10-05T03:12:12.949Z,10.07
2018-10-05T03:14:42.102Z,10.87
2018-10-05T03:17:11.265Z,8.10
2018-10-05T03:19:40.569Z,8.07
2018-10-05T03:22:09.807Z,9.50
2018-10-05T03:24:38.951Z,8.23
2018-10-05T03:27:09.011Z,7.57
2018-10-05T03:29:38.124Z,8.90
2018-10-05T03:32:07.448Z,9.50
2018-10-05T03:34:36.575Z,6.73
2018-10-05T03:37:05.715Z,11.30
2018-10-05T03:39:34.802Z,10.23
2018-10-05T03:42:03.946Z,11.03
2018-10-05T03:44:33.025Z,10.83
2018-10-05T03:47:02.271Z,12.70
2018-10-05T03:49:31.382Z,9.70
2018-10-05T03:52:00.561Z,11.30
2018-10-05T03:54:29.613Z,7.90
2018-10-05T03:56:58.761Z,9.17
2018-10-05T03:59:27.893Z,10.20
2018-10-05T04:01:56.979Z,6.47
2018-10-05T04:04:26.198Z,9.93
2018-10-05T04:06:55.312Z,7.37
2018-10-05T04:09:24.426Z,8.47
2018-10-05T04:11:53.480Z,7.13
2018-10-05T04:14:23.219Z,12.83
2018-10-05T04:16:52.290Z,9.93
2018-10-05T04:19:21.445Z,10.03
2018-10-05T04:21:50.555Z,9.60
2018-10-05T04:24:19.736Z,7.53
2018-10-05T04:26:48.870Z,11.63
2018-10-05T04:29:17.994Z,10.10
2018-10-05T04:31:47.156Z,8.77
2018-10-05T04:34:16.270Z,9.67
2018-10-05T04:36:45.746Z,10.37
2018-10-05T04:39:14.858Z,8.47
2018-10-05T04:41:44.007Z,10.40
2018-10-05T04:44:13.115Z,9.43
2018-10-05T04:46:48.803Z,8.80
2018-10-05T04:49:17.921Z,8.37
2018-10-05T04:51:47.518Z,8.83
2018-10-05T04:54:16.670Z,8.33
2018-10-05T04:56:45.793Z,8.70
2018-10-05T04:59:14.974Z,8.87
2018-10-05T05:01:44.060Z,10.00
2018-10-05T05:04:13.205Z,7.67
2018-10-05T05:06:42.324Z,11.33
2018-10-05T05:09:11.459Z,8.60
2018-10-05T05:11:40.623Z,9.57
2018-10-05T05:14:09.870Z,9.83
2018-10-05T05:16:39.035Z,7.47
2018-10-05T05:19:08.110Z,8.03
2018-10-05T05:21:37.231Z,8.17
2018-10-05T05:24:06.348Z,9.27
2018-10-05T05:26:35.434Z,7.50
2018-10-05T05:29:04.508Z,8.07
2018-10-05T05:31:33.747Z,8.23
2018-10-05T05:34:02.951Z,9.17
2018-10-05T05:36:31.965Z,8.90
2018-10-05T05:39:01.109Z,7.87
2018-10-05T05:41:30.246Z,8.60
2018-10-05T05:43:59.313Z,9.67
2018-10-05T05:46:28.409Z,8.40
2018-10-05T05:48:57.559Z,9.80
2018-10-05T05:51:26.642Z,7.90
2018-10-05T05:53:55.957Z,7.97
2018-10-05T05:56:25.070Z,8.00
2018-10-05T05:58:54.265Z,9.83
2018-10-05T06:01:23.339Z,7.47
2018-10-05T06:03:52.477Z,9.10
2018-10-05T06:06:21.593Z,9.57
2018-10-05T06:08:50.755Z,10.10
2018-10-05T06:11:19.877Z,9.77
2018-10-05T06:13:49.021Z,11.77
2018-10-05T06:16:18.186Z,7.67
2018-10-05T06:18:47.315Z,11.20
2018-10-05T06:21:16.525Z,9.93
2018-10-05T06:23:45.654Z,10.03
2018-10-05T06:26:15.265Z,12.43
2018-10-05T06:28:44.360Z,12.23
2018-10-05T06:31:13.392Z,12.73
2018-10-05T06:33:42.512Z,9.90
2018-10-05T06:36:11.644Z,10.63
2018-10-05T06:38:40.802Z,10.43
2018-10-05T06:41:09.966Z,14.40
2018-10-05T06:43:39.064Z,11.50
2018-10-05T06:46:08.333Z,9.57
2018-10-05T06:48:37.442Z,15.60
2018-10-05T06:51:06.593Z,9.97
2018-10-05T06:53:35.709Z,10.93
2018-10-05T06:56:04.870Z,10.63
2018-10-05T06:58:33.943Z,9.23
2018-10-05T07:01:03.107Z,9.97
2018-10-05T07:03:32.213Z,10.83
2018-10-05T07:06:01.331Z,9.33
2018-10-05T07:08:30.397Z,9.73
2018-10-05T07:10:59.555Z,9.50
2018-10-05T07:13:28.695Z,11.50
2018-10-05T07:15:57.986Z,15.13
2018-10-05T07:18:26.981Z,16.53
2018-10-05T07:20:56.102Z,16.13
2018-10-05T07:23:25.496Z,13.93
2018-10-05T07:25:54.604Z,13.20
2018-10-05T07:28:23.808Z,11.23
2018-10-05T07:30:52.886Z,12.10
2018-10-05T07:33:21.970Z,12.37
2018-10-05T07:35:51.139Z,13.57
2018-10-05T07:38:20.126Z,12.30
2018-10-05T07:40:49.233Z,12.47
2018-10-05T07:43:18.334Z,11.20
2018-10-05T07:45:47.454Z,10.30
2018-10-05T07:48:16.606Z,13.20
2018-10-05T07:50:45.701Z,10.33
2018-10-05T07:53:14.778Z,10.07
2018-10-05T07:55:43.987Z,12.93
2018-10-05T07:58:13.266Z,14.17
2018-10-05T08:00:42.358Z,14.33
2018-10-05T08:03:11.453Z,10.07
2018-10-05T08:05:40.526Z,12.27
2018-10-05T08:08:09.549Z,10.77
2018-10-05T08:10:38.750Z,11.57
2018-10-05T08:13:07.866Z,12.87
2018-10-05T08:15:36.904Z,11.80
2018-10-05T08:18:05.961Z,11.27
2018-10-05T08:20:35.082Z,11.07
2018-10-05T08:23:04.212Z,11.83
2018-10-05T08:25:33.319Z,11.07
2018-10-05T08:28:02.583Z,11.50
2018-10-05T08:30:32.810Z,9.63
2018-10-05T08:33:01.863Z,10.60
2018-10-05T08:35:30.959Z,12.23
2018-10-05T08:38:00.219Z,9.00
2018-10-05T08:40:29.433Z,9.87
2018-10-05T08:42:58.466Z,11.10
2018-10-05T08:45:34.275Z,9.93
2018-10-05T08:48:03.330Z,10.20
2018-10-05T08:50:33.343Z,11.20
2018-10-05T08:53:02.430Z,9.00
2018-10-05T08:55:31.491Z,8.77
2018-10-05T08:58:00.609Z,9.93
2018-10-05T09:00:29.702Z,7.43
2018-10-05T09:02:58.794Z,9.50
2018-10-05T09:05:27.891Z,10.47
2018-10-05T09:07:56.985Z,9.97
2018-10-05T09:10:26.095Z,9.87
2018-10-05T09:12:55.314Z,10.00
2018-10-05T09:15:24.436Z,9.63
2018-10-05T09:17:53.604Z,11.50
2018-10-05T09:20:22.686Z,9.97
2018-10-05T09:22:51.943Z,9.13
2018-10-05T09:25:20.973Z,9.43
2018-10-05T09:27:50.080Z,7.93
2018-10-05T09:30:19.155Z,7.77
2018-10-05T09:32:48.439Z,8.23
2018-10-05T09:35:17.538Z,9.33
2018-10-05T09:37:46.724Z,8.20
2018-10-05T09:40:15.728Z,8.40
2018-10-05T09:42:44.858Z,8.83
2018-10-05T09:45:13.932Z,9.77
2018-10-05T09:47:43.098Z,7.90
2018-10-05T09:50:12.278Z,8.17
2018-10-05T09:52:41.504Z,9.50
2018-10-05T09:55:10.599Z,8.90
2018-10-05T09:57:39.855Z,8.50
2018-10-05T10:00:13.124Z,9.10
2018-10-05T10:02:48.164Z,8.90
2018-10-05T10:05:17.243Z,8.17
2018-10-05T10:07:46.336Z,8.63
2018-10-05T10:10:15.414Z,9.20
2018-10-05T10:12:44.530Z,7.63
2018-10-05T10:15:13.632Z,6.00
2018-10-05T10:17:42.750Z,5.53
2018-10-05T10:20:11.834Z,7.27
2018-10-05T10:22:41.034Z,8.43
2018-10-05T10:25:10.477Z,7.17
2018-10-05T10:27:39.819Z,5.13
2018-10-05T10:30:09.175Z,7.03
2018-10-05T10:32:38.339Z,11.47
2018-10-05T10:35:07.482Z,8.73
2018-10-05T10:37:36.633Z,6.30
2018-10-05T10:40:05.840Z,10.63
2018-10-05T10:42:34.987Z,5.93
2018-10-05T10:45:04.374Z,6.40
2018-10-05T10:47:33.548Z,6.10
2018-10-05T10:50:02.702Z,6.27
2018-10-05T10:52:31.914Z,5.93
2018-10-05T10:55:01.057Z,4.60
2018-10-05T10:57:30.258Z,8.17
2018-10-05T10:59:59.399Z,7.10
2018-10-05T11:02:28.452Z,5.50
2018-10-05T11:04:57.705Z,5.13
2018-10-05T11:07:26.765Z,6.73
2018-10-05T11:09:55.934Z,4.63
2018-10-05T11:12:25.063Z,4.07
2018-10-05T11:14:54.139Z,7.47
2018-10-05T11:17:23.282Z,4.33
2018-10-05T11:19:52.373Z,4.90
2018-10-05T11:22:21.554Z,3.10
2018-10-05T11:24:50.726Z,5.67
2018-10-05T11:27:19.845Z,3.80
2018-10-05T11:29:49.016Z,6.47
2018-10-05T11:32:18.148Z,4.63
2018-10-05T11:34:47.252Z,5.63
2018-10-05T11:37:16.334Z,5.47
2018-10-05T11:39:45.493Z,4.77
2018-10-05T11:42:14.532Z,3.40
2018-10-05T11:44:43.697Z,3.93
2018-10-05T11:47:12.878Z,4.73
2018-10-05T11:49:42.029Z,3.07
2018-10-05T11:52:11.123Z,5.87
2018-10-05T11:54:40.289Z,5.50
2018-10-05T11:57:09.429Z,5.67
2018-10-05T11:59:38.621Z,4.83
2018-10-05T12:02:07.690Z,3.80
2018-10-05T12:04:36.787Z,4.30
2018-10-05T12:07:05.897Z,3.90
2018-10-05T12:09:35.039Z,3.33
2018-10-05T12:12:04.091Z,4.47
2018-10-05T12:14:33.366Z,2.73
2018-10-05T12:17:02.836Z,5.53
2018-10-05T12:19:32.058Z,5.07
2018-10-05T12:22:01.150Z,5.40
2018-10-05T12:24:30.298Z,4.77
2018-10-05T12:26:59.522Z,4.73
2018-10-05T12:29:28.697Z,4.83
2018-10-05T12:31:57.743Z,3.57
2018-10-05T12:34:26.901Z,3.67
2018-10-05T12:36:55.994Z,3.67
2018-10-05T12:39:25.104Z,3.90
2018-10-05T12:41:54.280Z,3.07
2018-10-05T12:44:23.427Z,3.67
2018-10-05T12:46:52.522Z,5.17
2018-10-05T12:49:21.614Z,4.27
2018-10-05T12:51:50.747Z,3.20
2018-10-05T12:54:19.881Z,5.33
2018-10-05T12:56:49.031Z,3.17
2018-10-05T12:59:18.203Z,3.33
2018-10-05T13:01:47.355Z,2.77
2018-10-05T13:04:16.469Z,3.40
2018-10-05T13:06:45.518Z,3.70
2018-10-05T13:09:14.638Z,2.53
2018-10-05T13:11:43.760Z,3.43
2018-10-05T13:14:12.902Z,2.93
2018-10-05T13:16:41.970Z,3.43
2018-10-05T13:19:11.142Z,3.00
2018-10-05T13:21:40.245Z,3.23
2018-10-05T13:24:09.353Z,3.60
2018-10-05T13:26:39.222Z,7.33
2018-10-05T13:29:08.365Z,2.63
2018-10-05T13:31:37.492Z,2.77
2018-10-05T13:34:06.799Z,2.27
2018-10-05T13:36:36.178Z,2.83
2018-10-05T13:39:07.416Z,2.93
2018-10-05T13:41:36.544Z,1.90
2018-10-05T13:44:06.052Z,5.57
2018-10-05T13:46:36.630Z,2.23
2018-10-05T13:49:06.487Z,3.07
2018-10-05T13:51:37.042Z,5.23
2018-10-05T13:54:06.759Z,3.60
2018-10-05T13:56:36.158Z,4.70
2018-10-05T13:59:06.016Z,2.00
2018-10-05T14:01:35.488Z,2.17
2018-10-05T14:04:05.072Z,3.20
2018-10-05T14:06:34.584Z,4.17
2018-10-05T14:09:05.139Z,5.00
2018-10-05T14:11:34.282Z,5.97
2018-10-05T14:14:03.457Z,2.77
2018-10-05T14:16:32.641Z,4.40
2018-10-05T14:19:01.815Z,2.27
2018-10-05T14:21:31.057Z,4.73
2018-10-05T14:24:00.170Z,1.90
2018-10-05T14:26:29.416Z,4.07
2018-10-05T14:28:58.538Z,2.77
2018-10-05T14:31:27.724Z,5.50
2018-10-05T14:33:56.943Z,1.70
2018-10-05T14:36:26.318Z,3.00
2018-10-05T14:38:57.000Z,2.20
2018-10-05T14:41:26.205Z,2.70
2018-10-05T14:43:55.771Z,3.23
2018-10-05T14:46:25.249Z,2.90
2018-10-05T14:48:54.394Z,2.93
2018-10-05T14:51:24.214Z,3.47
2018-10-05T14:53:54.028Z,3.53
2018-10-05T14:56:23.211Z,2.27
2018-10-05T14:58:52.406Z,2.03
2018-10-05T15:01:21.539Z,3.53
2018-10-05T15:03:50.742Z,1.73
2018-10-05T15:06:19.963Z,1.93
2018-10-05T15:08:49.134Z,1.93
2018-10-05T15:11:18.306Z,1.70
2018-10-05T15:13:47.597Z,2.63
2018-10-05T15:16:17.150Z,1.70
2018-10-05T15:18:46.418Z,3.27
2018-10-05T15:21:15.593Z,2.30
2018-10-05T15:23:44.841Z,1.30
2018-10-05T15:26:13.902Z,2.80
2018-10-05T15:28:43.054Z,1.70
2018-10-05T15:31:12.209Z,2.00
2018-10-05T15:33:41.346Z,2.60
2018-10-05T15:36:10.570Z,2.07
2018-10-05T15:38:41.317Z,5.23
2018-10-05T15:41:11.435Z,4.10
2018-10-05T15:43:40.578Z,3.07
2018-10-05T15:46:10.897Z,2.80
2018-10-05T15:48:40.134Z,1.60
2018-10-05T15:51:09.318Z,3.27
2018-10-05T15:53:39.003Z,3.30
2018-10-05T15:56:08.246Z,3.70
2018-10-05T15:58:37.342Z,4.23
2018-10-05T16:01:06.062Z,3.17
2018-10-05T16:03:40.703Z,2.90
2018-10-05T16:06:09.991Z,2.50
2018-10-05T16:08:39.715Z,2.70
2018-10-05T16:11:09.180Z,5.50
2018-10-05T16:13:38.428Z,3.20
2018-10-05T16:16:07.622Z,4.17
2018-10-05T16:18:36.841Z,4.80
2018-10-05T16:21:07.423Z,3.00
2018-10-05T16:23:36.983Z,2.80
2018-10-05T16:26:06.164Z,2.93
2018-10-05T16:28:35.279Z,4.03
2018-10-05T16:31:05.160Z,3.27
2018-10-05T16:33:34.678Z,3.80
2018-10-05T16:36:04.443Z,3.13
2018-10-05T16:38:33.738Z,4.63
2018-10-05T16:41:02.959Z,3.73
2018-10-05T16:43:32.972Z,3.30
2018-10-05T16:46:03.654Z,4.73
2018-10-05T16:48:32.790Z,2.50
2018-10-05T16:51:01.941Z,4.60
2018-10-05T16:53:31.357Z,2.07
2018-10-05T16:56:00.434Z,2.57
2018-10-05T16:58:29.645Z,3.73
2018-10-05T17:00:58.822Z,2.17
2018-10-05T17:03:28.565Z,4.53
2018-10-05T17:05:57.624Z,1.77
2018-10-05T17:08:29.350Z,4.67
2018-10-05T17:10:59.926Z,1.70
2018-10-05T17:13:41.051Z,4.33
2018-10-05T17:16:10.138Z,2.33
2018-10-05T17:18:39.396Z,4.57
2018-10-05T17:21:09.029Z,3.77
2018-10-05T17:23:38.230Z,6.27
2018-10-05T17:26:07.590Z,3.47
2018-10-05T17:28:36.810Z,3.43
2018-10-05T17:31:06.197Z,3.17
2018-10-05T17:33:35.406Z,3.77
2018-10-05T17:36:04.521Z,2.33
2018-10-05T17:38:34.115Z,1.80
2018-10-05T17:41:03.299Z,4.57
2018-10-05T17:43:32.948Z,3.10
2018-10-05T17:46:02.110Z,2.27
2018-10-05T17:48:31.484Z,3.60
2018-10-05T17:51:01.046Z,3.57
2018-10-05T17:53:30.412Z,2.53
2018-10-05T17:56:00.462Z,4.30
2018-10-05T17:58:30.571Z,2.50
2018-10-05T18:00:59.901Z,4.07
2018-10-05T18:03:29.162Z,3.10
2018-10-05T18:06:07.878Z,1.90
2018-10-05T18:08:37.092Z,4.23
2018-10-05T18:11:06.250Z,2.53
2018-10-05T18:13:35.437Z,3.33
2018-10-05T18:16:04.620Z,2.53
2018-10-05T18:18:33.913Z,3.83
2018-10-05T18:21:02.989Z,3.17
2018-10-05T18:23:32.198Z,5.10
2018-10-05T18:26:01.486Z,3.83
2018-10-05T18:28:30.636Z,3.33
2018-10-05T18:30:59.718Z,3.90
2018-10-05T18:33:29.538Z,4.00
2018-10-05T18:35:59.011Z,4.23
2018-10-05T18:38:28.178Z,4.97
2018-10-05T18:40:58.348Z,3.77
2018-10-05T18:43:28.112Z,3.23
2018-10-05T18:45:57.230Z,4.43
2018-10-05T18:48:26.311Z,3.57
2018-10-05T18:50:55.471Z,2.90
2018-10-05T18:53:24.533Z,3.87
2018-10-05T18:55:54.121Z,3.57
2018-10-05T18:58:23.322Z,4.07
2018-10-05T19:00:52.383Z,4.23
2018-10-05T19:03:22.374Z,2.53
2018-10-05T19:05:51.474Z,3.43
2018-10-05T19:08:20.640Z,2.87
2018-10-05T19:10:50.322Z,3.57
2018-10-05T19:13:19.450Z,3.67
2018-10-05T19:15:48.706Z,3.53
2018-10-05T19:18:17.884Z,2.80
2018-10-05T19:20:46.926Z,2.63
2018-10-05T19:23:16.042Z,2.93
2018-10-05T19:25:45.480Z,4.40
2018-10-05T19:28:14.750Z,3.77
2018-10-05T19:30:43.873Z,4.33
2018-10-05T19:33:13.210Z,4.53
2018-10-05T19:35:43.065Z,5.50
2018-10-05T19:38:12.543Z,3.30
2018-10-05T19:40:42.853Z,3.90
2018-10-05T19:43:12.846Z,3.50
2018-10-05T19:45:44.623Z,5.90
2018-10-05T19:48:13.899Z,4.40
2018-10-05T19:50:43.001Z,5.87
2018-10-05T19:53:12.812Z,5.70
2018-10-05T19:55:41.848Z,4.77
2018-10-05T19:58:10.971Z,5.63
2018-10-05T20:00:40.105Z,5.27
2018-10-05T20:03:09.370Z,4.60
2018-10-05T20:05:38.645Z,5.87
2018-10-05T20:08:08.107Z,4.27
2018-10-05T20:10:37.422Z,5.60
2018-10-05T20:13:06.970Z,5.90
2018-10-05T20:15:36.194Z,6.83
2018-10-05T20:18:05.463Z,5.87
2018-10-05T20:20:34.273Z,7.47
2018-10-05T20:23:03.453Z,4.33
2018-10-05T20:25:32.594Z,5.33
2018-10-05T20:28:01.822Z,5.07
2018-10-05T20:30:30.985Z,3.97
2018-10-05T20:33:00.563Z,5.23
2018-10-05T20:35:29.685Z,6.17
2018-10-05T20:37:58.722Z,5.83
2018-10-05T20:40:27.787Z,6.17
2018-10-05T20:42:56.968Z,5.40
2018-10-05T20:45:26.094Z,6.40
2018-10-05T20:47:55.158Z,4.57
2018-10-05T20:50:24.198Z,6.80
2018-10-05T20:52:53.628Z,5.10
2018-10-05T20:55:22.749Z,6.27
2018-10-05T20:57:51.858Z,10.40
2018-10-05T21:00:20.921Z,6.57
2018-10-05T21:02:50.031Z,7.37
2018-10-05T21:05:19.143Z,6.57
2018-10-05T21:07:48.383Z,4.90
2018-10-05T21:10:17.478Z,5.60
2018-10-05T21:12:46.730Z,5.40
2018-10-05T21:15:15.955Z,5.93
2018-10-05T21:17:45.031Z,5.70
2018-10-05T21:20:14.140Z,6.27
2018-10-05T21:22:43.290Z,5.10
2018-10-05T21:25:12.345Z,4.87
2018-10-05T21:27:41.341Z,4.47
2018-10-05T21:30:10.355Z,6.17
2018-10-05T21:32:39.790Z,5.80
2018-10-05T21:35:08.942Z,5.23
2018-10-05T21:37:37.983Z,4.83
2018-10-05T21:40:07.102Z,5.33
2018-10-05T21:42:36.219Z,4.97
2018-10-05T21:45:05.560Z,6.00
2018-10-05T21:47:34.577Z,4.93
2018-10-05T21:50:03.782Z,5.93
2018-10-05T21:52:32.916Z,7.03
2018-10-05T21:55:02.009Z,5.27
2018-10-05T21:57:31.094Z,7.50
2018-10-05T22:00:00.191Z,5.73
2018-10-05T22:02:34.864Z,6.43
2018-10-05T22:05:05.363Z,7.53
2018-10-05T22:07:34.437Z,5.63
2018-10-05T22:10:03.645Z,7.83
2018-10-05T22:12:32.737Z,7.27
2018-10-05T22:15:01.814Z,5.80
2018-10-05T22:17:30.892Z,6.23
2018-10-05T22:20:00.062Z,7.33
2018-10-05T22:22:29.153Z,5.03
2018-10-05T22:24:58.240Z,7.17
2018-10-05T22:27:27.332Z,5.63
2018-10-05T22:29:56.542Z,7.63
2018-10-05T22:32:25.558Z,6.73
2018-10-05T22:34:54.650Z,6.33
2018-10-05T22:37:23.709Z,6.83
2018-10-05T22:39:52.778Z,5.87
2018-10-05T22:42:21.996Z,6.20
2018-10-05T22:44:51.111Z,7.07
2018-10-05T22:47:20.198Z,5.20
2018-10-05T22:49:49.399Z,6.20
2018-10-05T22:52:18.482Z,6.10
2018-10-05T22:54:48.078Z,5.67
2018-10-05T22:57:17.164Z,7.83
2018-10-05T22:59:46.208Z,6.33
2018-10-05T23:02:15.320Z,6.80
2018-10-05T23:04:44.438Z,7.27
2018-10-05T23:07:13.578Z,6.40
2018-10-05T23:09:42.714Z,7.33
2018-10-05T23:12:11.802Z,7.87
2018-10-05T23:14:41.162Z,7.00
2018-10-05T23:17:10.228Z,6.90
2018-10-05T23:19:40.014Z,7.60
2018-10-05T23:22:09.085Z,6.90
2018-10-05T23:24:38.598Z,5.70
2018-10-05T23:27:07.757Z,6.50
2018-10-05T23:29:36.887Z,6.37
2018-10-05T23:32:05.957Z,6.03
2018-10-05T23:34:35.386Z,7.13
2018-10-05T23:37:04.874Z,7.17
2018-10-05T23:39:33.958Z,8.23
2018-10-05T23:42:03.618Z,7.13
2018-10-05T23:44:32.678Z,7.57
2018-10-05T23:47:01.742Z,6.10
2018-10-05T23:49:30.817Z,7.13
2018-10-05T23:52:11.251Z,7.40
2018-10-05T23:54:40.550Z,7.67
2018-10-05T23:57:09.546Z,7.57
2018-10-05T23:59:38.718Z,7.87
